Time;durP1;ratioP1;P1;durP2;ratioP2;P2;SDS_P1;SDS_P2;PMS_P1;PMS_P2;Temp;Humidity;BMP_temperature;BMP_pressure;BME280_temperature;BME280_humidity;BME280_pressure;Samples;Min_cycle;Max_cycle;Signal;HPM_P1;HPM_P2
2022/01/13 00:01:55;;;;;;;22.17;17.20;;;-2.30;99.90;;;;;;5051649;28;20195;-81
2022/01/13 00:04:23;;;;;;;28.20;17.67;;;;;;;;;;5054381;28;20230;-81
2022/01/13 00:06:50;;;;;;;23.45;16.58;;;;;;;;;;5053465;28;20253;-81
2022/01/13 00:09:18;;;;;;;24.88;15.90;;;-1.50;99.90;;;;;;5053684;28;20227;-81
2022/01/13 00:11:47;;;;;;;24.35;17.90;;;;;;;;;;5055276;28;20290;-81
2022/01/13 00:14:38;;;;;;;27.63;17.13;;;;;;;;;;5054805;28;20772;-81
2022/01/13 00:17:12;;;;;;;24.98;16.77;;;-1.80;99.90;;;;;;5057178;28;20207;-81
2022/01/13 00:20:19;;;;;;;26.98;17.75;;;;;;;;;;5052019;28;20197;-81
2022/01/13 00:23:37;;;;;;;26.05;17.35;;;;;;;;;;5055579;28;20258;-81
2022/01/13 00:25:37;;;;;;;31.20;19.85;;;;;;;;;;5049362;28;20220;-81
2022/01/13 00:28:12;;;;;;;25.45;18.50;;;;;;;;;;5050569;28;20204;-81
2022/01/13 00:30:39;;;;;;;31.08;18.48;;;;;;;;;;5049399;28;20209;-82
2022/01/13 00:33:10;;;;;;;28.92;18.42;;;;;;;;;;5048082;28;20299;-81
2022/01/13 00:35:37;;;;;;;33.53;19.45;;;;;;;;;;5049828;28;20224;-81
2022/01/13 00:38:04;;;;;;;34.97;19.95;;;;;;;;;;5059184;28;20627;-81
2022/01/13 00:40:31;;;;;;;30.05;17.48;;;;;;;;;;5049756;28;20621;-81
2022/01/13 00:42:59;;;;;;;32.35;21.20;;;;;;;;;;5053875;28;20604;-81
2022/01/13 00:45:26;;;;;;;33.55;18.88;;;;;;;;;;5051820;28;20620;-81
2022/01/13 00:47:53;;;;;;;30.58;19.30;;;;;;;;;;5044738;28;20283;-82
2022/01/13 00:50:22;;;;;;;28.77;17.55;;;;;;;;;;5057716;28;20276;-82
2022/01/13 00:52:49;;;;;;;27.75;19.23;;;;;;;;;;5063587;28;20685;-81
2022/01/13 00:55:21;;;;;;;30.13;18.73;;;;;;;;;;5054209;28;20246;-81
2022/01/13 00:57:49;;;;;;;28.48;19.00;;;;;;;;;;5056346;28;20274;-81
2022/01/13 01:00:16;;;;;;;30.17;18.65;;;;;;;;;;5055674;28;20230;-81
2022/01/13 01:02:44;;;;;;;34.00;20.33;;;;;;;;;;5053069;28;20533;-81
2022/01/13 01:05:12;;;;;;;24.20;19.05;;;;;;;;;;5047613;28;20217;-81
2022/01/13 01:07:41;;;;;;;32.28;20.15;;;;;;;;;;5058965;28;20208;-81
2022/01/13 01:10:09;;;;;;;28.25;18.77;;;;;;;;;;5053825;28;20668;-82
2022/01/13 01:12:38;;;;;;;31.20;19.92;;;;;;;;;;5056709;28;20207;-81
2022/01/13 01:15:08;;;;;;;28.83;19.88;;;-1.30;99.90;;;;;;5052883;28;20250;-82
2022/01/13 01:17:42;;;;;;;27.73;19.42;;;;;;;;;;5057939;28;20204;-81
2022/01/13 01:20:11;;;;;;;31.42;20.33;;;-1.20;99.90;;;;;;5058509;28;20302;-81
2022/01/13 01:22:56;;;;;;;33.88;21.83;;;;;;;;;;5055273;28;20229;-81
2022/01/13 01:28:27;;;;;;;29.40;19.88;;;;;;;;;;5041022;28;20691;-81
2022/01/13 01:30:55;;;;;;;31.13;21.90;;;;;;;;;;5057784;28;20230;-81
2022/01/13 01:33:23;;;;;;;29.20;20.40;;;;;;;;;;5057627;28;20632;-81
2022/01/13 01:35:50;;;;;;;32.22;20.23;;;;;;;;;;5057694;28;20200;-81
2022/01/13 01:38:19;;;;;;;26.83;18.60;;;;;;;;;;5058263;28;20250;-81
2022/01/13 01:40:47;;;;;;;29.95;18.90;;;;;;;;;;5057056;28;20297;-81
2022/01/13 01:43:14;;;;;;;32.50;20.25;;;;;;;;;;5050573;28;20198;-81
2022/01/13 01:45:44;;;;;;;32.55;20.75;;;;;;;;;;5054457;28;20608;-81
2022/01/13 01:48:18;;;;;;;30.98;21.58;;;;;;;;;;5058501;28;20232;-81
2022/01/13 01:50:53;;;;;;;32.67;19.30;;;;;;;;;;5054888;28;20211;-81
2022/01/13 01:53:20;;;;;;;31.20;19.30;;;;;;;;;;5055417;28;20283;-81
2022/01/13 01:55:49;;;;;;;34.75;21.17;;;-0.70;99.90;;;;;;5053619;28;20257;-81
2022/01/13 01:58:16;;;;;;;30.05;19.60;;;;;;;;;;5054899;28;20283;-81
2022/01/13 02:00:43;;;;;;;29.52;21.33;;;;;;;;;;5047029;28;20220;-81
2022/01/13 02:03:11;;;;;;;27.20;19.33;;;-0.60;99.90;;;;;;5057524;28;20750;-81
2022/01/13 02:05:38;;;;;;;26.60;19.02;;;;;;;;;;5056864;28;20199;-81
2022/01/13 02:08:06;;;;;;;23.83;17.98;;;-0.80;99.90;;;;;;5057471;28;20195;-81
2022/01/13 02:10:35;;;;;;;31.05;20.42;;;;;;;;;;5055203;28;20606;-82
2022/01/13 02:13:08;;;;;;;25.85;17.30;;;;;;;;;;5054755;28;20227;-81
2022/01/13 02:15:47;;;;;;;29.70;20.02;;;;;;;;;;5055234;28;20329;-81
2022/01/13 02:18:14;;;;;;;27.48;19.35;;;;;;;;;;5050470;28;20207;-81
2022/01/13 02:20:49;;;;;;;33.88;20.42;;;-0.60;99.90;;;;;;5055750;28;20719;-81
2022/01/13 02:23:32;;;;;;;29.10;18.98;;;-0.70;99.90;;;;;;5055684;28;20735;-81
2022/01/13 02:26:00;;;;;;;31.35;21.00;;;-0.70;99.90;;;;;;5055405;28;20195;-82
2022/01/13 02:28:27;;;;;;;30.67;19.17;;;;;;;;;;5056670;28;20196;-82
2022/01/13 02:30:55;;;;;;;29.55;20.08;;;;;;;;;;5056069;28;20254;-81
2022/01/13 02:33:22;;;;;;;25.70;18.25;;;;;;;;;;5053361;28;20280;-81
2022/01/13 02:35:51;;;;;;;33.20;21.48;;;;;;;;;;5046840;28;20232;-81
2022/01/13 02:38:18;;;;;;;25.90;17.85;;;;;;;;;;5052244;28;20210;-81
2022/01/13 02:40:45;;;;;;;33.03;20.70;;;;;;;;;;5051718;28;20253;-81
2022/01/13 02:43:13;;;;;;;25.05;18.77;;;;;;;;;;5054268;28;20210;-81
2022/01/13 02:45:52;;;;;;;28.52;19.92;;;;;;;;;;5055685;28;20192;-81
2022/01/13 02:48:30;;;;;;;30.88;20.08;;;;;;;;;;5055947;28;20699;-81
2022/01/13 02:51:00;;;;;;;26.38;17.85;;;-0.60;99.90;;;;;;5055052;28;20306;-82
2022/01/13 02:53:28;;;;;;;25.90;19.05;;;-0.50;99.90;;;;;;5054805;28;20208;-81
2022/01/13 02:56:01;;;;;;;29.95;19.10;;;;;;;;;;5046789;28;20227;-81
2022/01/13 02:58:28;;;;;;;32.00;20.30;;;;;;;;;;5056215;28;20234;-81
2022/01/13 03:00:55;;;;;;;25.30;19.08;;;;;;;;;;5048039;28;20207;-81
2022/01/13 03:03:23;;;;;;;30.13;18.17;;;;;;;;;;5045141;28;20208;-82
2022/01/13 03:05:50;;;;;;;27.25;19.13;;;;;;;;;;5056550;28;20212;-82
2022/01/13 03:08:19;;;;;;;24.42;16.65;;;;;;;;;;5053428;28;20206;-82
2022/01/13 03:10:46;;;;;;;25.77;17.50;;;;;;;;;;5050107;28;20246;-82
2022/01/13 03:13:13;;;;;;;24.50;18.75;;;;;;;;;;5053214;28;20680;-82
2022/01/13 03:15:41;;;;;;;23.77;18.33;;;;;;;;;;5056918;28;20570;-82
2022/01/13 03:18:08;;;;;;;28.13;17.73;;;;;;;;;;5056955;28;20207;-82
2022/01/13 03:20:35;;;;;;;33.97;19.10;;;;;;;;;;5055073;28;20265;-82
2022/01/13 03:23:04;;;;;;;29.38;17.73;;;;;;;;;;5057074;28;20210;-81
2022/01/13 03:25:33;;;;;;;27.75;17.45;;;;;;;;;;5056407;28;20207;-82
2022/01/13 03:28:07;;;;;;;27.98;17.60;;;;;;;;;;5057406;28;20199;-82
2022/01/13 03:30:34;;;;;;;23.48;18.02;;;;;;;;;;5051242;28;20554;-82
2022/01/13 03:33:02;;;;;;;23.08;16.45;;;;;;;;;;5056394;28;20206;-81
2022/01/13 03:35:29;;;;;;;23.20;17.55;;;;;;;;;;5051502;28;20265;-82
2022/01/13 03:37:58;;;;;;;22.08;17.95;;;;;;;;;;5048946;28;20200;-82
2022/01/13 03:40:26;;;;;;;29.10;17.30;;;;;;;;;;5051171;28;20743;-82
2022/01/13 03:42:54;;;;;;;22.23;17.33;;;-0.40;99.90;;;;;;5054249;28;20601;-82
2022/01/13 03:45:22;;;;;;;29.52;18.20;;;;;;;;;;5050070;28;20241;-82
2022/01/13 03:47:49;;;;;;;23.98;16.90;;;;;;;;;;5054293;28;20204;-82
2022/01/13 03:50:17;;;;;;;28.30;17.77;;;;;;;;;;5054267;28;20227;-82
2022/01/13 03:53:35;;;;;;;29.33;21.85;;;-0.30;99.90;;;;;;5046791;28;20309;-82
2022/01/13 03:56:50;;;;;;;26.70;17.98;;;-0.40;99.90;;;;;;5049636;28;20250;-82
2022/01/13 03:59:43;;;;;;;26.23;17.13;;;;;;;;;;5033564;28;20239;-82
2022/01/13 04:02:11;;;;;;;26.65;16.20;;;;;;;;;;5052897;28;20207;-82
2022/01/13 04:04:40;;;;;;;23.20;17.15;;;-0.40;99.90;;;;;;5050808;28;20234;-81
2022/01/13 04:07:13;;;;;;;24.52;17.92;;;-0.40;99.90;;;;;;5052525;28;20204;-82
2022/01/13 04:10:19;;;;;;;27.90;16.20;;;-0.40;99.90;;;;;;5051131;28;20295;-82
2022/01/13 04:12:46;;;;;;;34.40;17.30;;;;;;;;;;5051885;28;20744;-82
2022/01/13 04:15:17;;;;;;;23.25;17.73;;;-0.50;99.90;;;;;;5051836;28;20635;-82
2022/01/13 04:17:44;;;;;;;29.20;19.05;;;;;;;;;;5059193;28;20211;-82
2022/01/13 04:20:12;;;;;;;27.00;16.55;;;;;;;;;;5053808;28;20234;-82
2022/01/13 04:22:39;;;;;;;25.88;17.38;;;;;;;;;;5055925;28;20677;-82
2022/01/13 04:25:07;;;;;;;26.90;16.92;;;;;;;;;;5049956;28;20354;-82
2022/01/13 04:27:38;;;;;;;23.77;16.40;;;;;;;;;;5054494;28;20653;-82
2022/01/13 04:30:32;;;;;;;33.08;16.65;;;;;;;;;;5047244;28;20231;-82
2022/01/13 04:33:01;;;;;;;23.27;16.05;;;;;;;;;;5055682;28;20215;-82
2022/01/13 04:35:28;;;;;;;31.88;19.08;;;;;;;;;;5055352;28;20223;-82
2022/01/13 04:37:55;;;;;;;28.10;17.85;;;;;;;;;;5055398;28;20680;-82
2022/01/13 04:40:22;;;;;;;32.25;20.15;;;;;;;;;;5046927;28;20539;-82
2022/01/13 04:42:53;;;;;;;26.58;18.35;;;;;;;;;;5054907;28;20199;-82
2022/01/13 04:45:21;;;;;;;26.52;19.35;;;;;;;;;;5049460;28;20226;-82
2022/01/13 04:47:49;;;;;;;27.63;16.40;;;;;;;;;;5045392;28;20235;-82
2022/01/13 04:50:17;;;;;;;23.20;16.25;;;;;;;;;;5049036;28;20228;-82
2022/01/13 04:52:44;;;;;;;26.17;16.27;;;;;;;;;;5055836;28;20229;-82
2022/01/13 04:55:13;;;;;;;30.70;20.33;;;;;;;;;;5049298;28;20264;-82
2022/01/13 04:57:40;;;;;;;26.85;18.02;;;;;;;;;;5050685;28;20203;-82
2022/01/13 05:00:10;;;;;;;25.27;18.58;;;-0.20;99.90;;;;;;5052572;28;20231;-82
2022/01/13 05:02:37;;;;;;;27.40;17.25;;;;;;;;;;5046930;28;20214;-82
2022/01/13 05:05:05;;;;;;;27.13;17.05;;;;;;;;;;5053074;28;20230;-82
2022/01/13 05:07:34;;;;;;;31.02;19.63;;;;;;;;;;5052986;28;20568;-82
2022/01/13 05:10:01;;;;;;;32.47;19.92;;;;;;;;;;5054256;28;20234;-82
2022/01/13 05:12:33;;;;;;;27.02;18.30;;;;;;;;;;5042621;28;20231;-82
2022/01/13 05:15:03;;;;;;;27.98;18.23;;;-0.40;99.90;;;;;;5050614;28;20259;-82
2022/01/13 05:20:38;;;;;;;29.98;19.90;;;-0.50;99.90;;;;;;5009837;28;20205;-81
2022/01/13 05:23:09;;;;;;;29.77;19.27;;;-0.40;99.90;;;;;;5012387;28;20774;-82
2022/01/13 05:25:36;;;;;;;28.88;19.33;;;;;;;;;;5033951;28;20468;-81
2022/01/13 05:28:03;;;;;;;29.58;18.08;;;;;;;;;;5055967;28;20196;-82
2022/01/13 05:30:30;;;;;;;21.00;16.63;;;;;;;;;;5051159;28;20620;-82
2022/01/13 05:32:58;;;;;;;24.73;19.48;;;;;;;;;;5048734;28;20223;-82
2022/01/13 05:35:26;;;;;;;27.80;19.45;;;;;;;;;;5055827;28;20235;-82
2022/01/13 05:37:54;;;;;;;25.63;18.17;;;;;;;;;;5059506;28;20200;-82
2022/01/13 05:40:24;;;;;;;25.25;18.95;;;;;;;;;;5057578;28;20207;-84
2022/01/13 05:42:52;;;;;;;29.45;21.35;;;;;;;;;;5057937;28;20793;-83
2022/01/13 05:45:21;;;;;;;29.55;21.13;;;;;;;;;;5058487;28;20253;-84
2022/01/13 05:47:50;;;;;;;25.85;18.05;;;-0.40;99.90;;;;;;5055929;28;20853;-83
2022/01/13 05:50:20;;;;;;;32.78;20.98;;;-0.20;99.90;;;;;;5047899;28;21357;-84
2022/01/13 05:52:47;;;;;;;29.60;22.10;;;;;;;;;;5054736;28;20228;-84
2022/01/13 05:55:15;;;;;;;26.75;18.63;;;-0.30;99.90;;;;;;5053427;28;20266;-84
2022/01/13 05:57:45;;;;;;;24.85;18.95;;;-0.30;99.90;;;;;;5056168;28;20224;-84
2022/01/13 06:00:16;;;;;;;28.15;19.83;;;-0.30;99.90;;;;;;5046374;28;20196;-84
2022/01/13 06:02:46;;;;;;;31.48;17.95;;;-0.30;99.90;;;;;;5055083;28;20203;-84
2022/01/13 06:05:14;;;;;;;27.88;17.95;;;-0.40;99.90;;;;;;5056765;28;20199;-84
2022/01/13 06:07:42;;;;;;;23.40;19.20;;;;;;;;;;5046189;28;20239;-83
2022/01/13 06:10:12;;;;;;;20.27;17.58;;;-0.60;99.90;;;;;;5058959;28;20668;-83
2022/01/13 06:12:40;;;;;;;33.15;17.10;;;;;;;;;;5056627;28;20223;-84
2022/01/13 06:15:10;;;;;;;26.90;18.52;;;;;;;;;;5058171;28;20227;-84
2022/01/13 06:17:38;;;;;;;30.15;17.65;;;-0.40;99.90;;;;;;5051254;28;20200;-84
2022/01/13 06:20:08;;;;;;;30.17;18.30;;;-0.40;99.90;;;;;;5056496;28;20199;-84
2022/01/13 06:22:35;;;;;;;29.52;17.95;;;;;;;;;;5052780;28;20666;-83
2022/01/13 06:25:05;;;;;;;23.23;18.30;;;;;;;;;;5058349;28;20195;-83
2022/01/13 06:27:33;;;;;;;26.67;19.33;;;;;;;;;;5053909;28;20743;-84
2022/01/13 06:30:10;;;;;;;25.95;17.75;;;-0.40;99.90;;;;;;5051609;28;20625;-83
2022/01/13 06:32:38;;;;;;;29.48;20.00;;;;;;;;;;5053145;28;20267;-83
2022/01/13 06:35:08;;;;;;;23.70;17.58;;;-0.50;99.90;;;;;;5057779;28;20203;-84
2022/01/13 06:37:35;;;;;;;22.30;17.42;;;;;;;;;;5057996;28;20235;-83
2022/01/13 06:40:04;;;;;;;38.55;18.20;;;;;;;;;;5043449;28;20290;-84
2022/01/13 06:42:32;;;;;;;34.10;18.23;;;;;;;;;;5053330;28;20288;-83
2022/01/13 06:44:59;;;;;;;32.30;19.80;;;;;;;;;;5054281;28;20273;-84
2022/01/13 06:47:28;;;;;;;29.25;17.88;;;;;;;;;;5054587;28;20201;-83
2022/01/13 06:49:55;;;;;;;24.98;17.13;;;;;;;;;;5053441;28;20223;-84
2022/01/13 06:52:22;;;;;;;28.48;20.23;;;;;;;;;;5059483;28;20945;-83
2022/01/13 06:54:52;;;;;;;23.50;17.67;;;;;;;;;;5057701;28;20277;-83
2022/01/13 06:57:19;;;;;;;28.23;20.23;;;;;;;;;;5057237;28;20231;-83
2022/01/13 06:59:46;;;;;;;29.38;18.65;;;;;;;;;;5057851;28;20857;-83
2022/01/13 07:02:14;;;;;;;23.58;17.38;;;;;;;;;;5060333;28;20212;-84
2022/01/13 07:04:43;;;;;;;23.27;17.60;;;;;;;;;;5057192;28;20287;-84
2022/01/13 07:07:11;;;;;;;29.25;18.98;;;;;;;;;;5058531;28;20207;-84
2022/01/13 07:09:38;;;;;;;28.98;19.50;;;-0.20;99.90;;;;;;5061114;28;20634;-83
2022/01/13 07:12:08;;;;;;;27.90;19.67;;;;;;;;;;5054925;28;20212;-84
2022/01/13 07:14:35;;;;;;;24.92;18.55;;;;;;;;;;5060902;28;20219;-84
2022/01/13 07:17:03;;;;;;;23.45;18.48;;;;;;;;;;5058724;28;20281;-84
2022/01/13 07:19:30;;;;;;;26.85;18.23;;;;;;;;;;5061494;28;20238;-84
2022/01/13 07:21:59;;;;;;;28.02;18.08;;;;;;;;;;5061012;28;20204;-83
2022/01/13 07:24:26;;;;;;;26.20;18.60;;;;;;;;;;5052253;28;20994;-84
2022/01/13 07:26:53;;;;;;;32.08;19.52;;;;;;;;;;5052927;28;20207;-84
2022/01/13 07:29:21;;;;;;;26.10;18.45;;;;;;;;;;5038669;28;20205;-83
2022/01/13 07:31:48;;;;;;;32.90;20.10;;;;;;;;;;5046385;28;20196;-83
2022/01/13 07:34:15;;;;;;;21.50;18.00;;;;;;;;;;5044208;28;20240;-83
2022/01/13 07:36:43;;;;;;;25.55;17.23;;;;;;;;;;5052094;28;20224;-83
2022/01/13 07:39:11;;;;;;;25.65;20.90;;;;;;;;;;5051997;28;20222;-84
2022/01/13 07:41:39;;;;;;;26.70;19.60;;;;;;;;;;5056622;28;20204;-84
2022/01/13 07:44:06;;;;;;;28.27;19.75;;;;;;;;;;5052004;28;20278;-84
2022/01/13 07:46:34;;;;;;;23.63;17.42;;;;;;;;;;5056530;28;20197;-83
2022/01/13 07:49:01;;;;;;;27.48;18.50;;;;;;;;;;5050429;28;20223;-84
2022/01/13 07:51:30;;;;;;;28.48;18.67;;;;;;;;;;5055159;28;20216;-83
2022/01/13 07:53:57;;;;;;;32.30;18.02;;;;;;;;;;5052654;28;20282;-84
2022/01/13 07:56:28;;;;;;;26.33;18.75;;;;;;;;;;5054104;28;20230;-83
2022/01/13 07:58:55;;;;;;;25.70;17.63;;;;;;;;;;5052607;28;20225;-84
2022/01/13 08:01:22;;;;;;;24.17;18.23;;;;;;;;;;5058200;28;20242;-84
2022/01/13 08:03:50;;;;;;;25.63;18.45;;;;;;;;;;5053728;28;20258;-84
2022/01/13 08:06:18;;;;;;;24.98;20.75;;;1.40;99.90;;;;;;5051940;28;20203;-84
2022/01/13 08:08:45;;;;;;;33.20;20.40;;;;;;;;;;5050102;28;20658;-84
2022/01/13 08:11:13;;;;;;;29.38;20.42;;;;;;;;;;5056165;28;20928;-84
2022/01/13 08:13:41;;;;;;;30.33;18.80;;;;;;;;;;5049250;28;20215;-83
2022/01/13 08:16:10;;;;;;;29.92;18.48;;;;;;;;;;5055457;28;20220;-83
2022/01/13 08:21:23;;;;;;;29.52;19.00;;;;;;;;;;5053921;28;20215;-82
2022/01/13 08:23:51;;;;;;;24.33;18.02;;;;;;;;;;5054285;28;20196;-82
2022/01/13 08:26:18;;;;;;;30.52;20.98;;;;;;;;;;5055572;28;20280;-83
2022/01/13 08:28:47;;;;;;;21.17;17.10;;;-0.50;99.90;;;;;;5056768;28;20222;-82
2022/01/13 08:31:14;;;;;;;25.38;18.25;;;-0.60;99.90;;;;;;5051730;28;20223;-83
2022/01/13 08:33:42;;;;;;;28.45;20.13;;;;;;;;;;5048291;28;20231;-82
2022/01/13 08:36:09;;;;;;;30.67;19.80;;;-0.70;99.90;;;;;;5053404;28;20290;-83
2022/01/13 08:38:38;;;;;;;26.80;19.42;;;-0.60;99.90;;;;;;5052673;28;20198;-82
2022/01/13 08:41:06;;;;;;;29.23;19.10;;;;;;;;;;5055565;28;20203;-82
2022/01/13 08:43:34;;;;;;;30.80;21.95;;;;;;;;;;5055185;28;20207;-83
2022/01/13 08:46:04;;;;;;;27.33;19.73;;;;;;;;;;5054287;28;20211;-83
2022/01/13 08:48:32;;;;;;;29.08;19.95;;;;;;;;;;5050875;28;20739;-82
2022/01/13 08:50:59;;;;;;;23.88;18.58;;;;;;;;;;5054267;28;20241;-82
2022/01/13 08:53:26;;;;;;;32.40;24.05;;;;;;;;;;5050544;28;20789;-82
2022/01/13 08:55:55;;;;;;;25.50;21.35;;;;;;;;;;5052908;28;20230;-83
2022/01/13 08:58:23;;;;;;;29.05;20.20;;;;;;;;;;5056459;28;20205;-83
2022/01/13 09:00:51;;;;;;;29.10;19.40;;;;;;;;;;5051896;28;20678;-83
2022/01/13 09:03:19;;;;;;;28.25;19.83;;;-0.10;99.90;;;;;;5051061;28;20204;-83
2022/01/13 09:05:47;;;;;;;29.52;19.10;;;-0.70;99.90;;;;;;5056649;28;20207;-83
2022/01/13 09:08:14;;;;;;;33.70;21.05;;;;;;;;;;5055087;28;20215;-83
2022/01/13 09:10:44;;;;;;;28.40;20.15;;;0.10;99.90;;;;;;5060442;28;20195;-84
2022/01/13 09:13:12;;;;;;;30.25;19.20;;;;;;;;;;5054313;28;20234;-83
2022/01/13 09:15:44;;;;;;;22.23;18.02;;;;;;;;;;5060353;28;20220;-83
2022/01/13 09:18:16;;;;;;;25.20;18.35;;;;;;;;;;5059679;28;20430;-84
2022/01/13 09:20:46;;;;;;;29.08;18.20;;;0.20;99.90;;;;;;5062075;28;20214;-84
2022/01/13 09:23:14;;;;;;;26.80;20.23;;;0.30;99.10;;;;;;5052865;28;20200;-84
2022/01/13 09:25:41;;;;;;;27.38;19.52;;;;;;;;;;5061015;28;20211;-83
2022/01/13 09:28:09;;;;;;;27.38;19.33;;;0.30;99.10;;;;;;5051282;28;20296;-83
2022/01/13 09:30:37;;;;;;;25.13;19.15;;;;;;;;;;5061309;28;20208;-84
2022/01/13 09:33:05;;;;;;;26.08;19.83;;;;;;;;;;5053197;28;20595;-83
2022/01/13 09:35:33;;;;;;;25.75;19.27;;;0.50;99.10;;;;;;5061234;28;20207;-84
2022/01/13 09:38:03;;;;;;;28.98;19.10;;;0.50;98.70;;;;;;5055047;28;20238;-83
2022/01/13 09:40:32;;;;;;;30.05;18.70;;;;;;;;;;5058491;28;20211;-84
2022/01/13 09:43:02;;;;;;;25.42;17.77;;;0.40;98.10;;;;;;5060221;28;20235;-84
2022/01/13 09:45:30;;;;;;;24.08;17.33;;;0.50;98.60;;;;;;5062083;28;20599;-84
2022/01/13 09:47:57;;;;;;;26.83;16.70;;;;;;;;;;5060491;28;20247;-83
2022/01/13 09:50:24;;;;;;;19.17;14.77;;;;;;;;;;5059653;28;20206;-84
2022/01/13 09:52:52;;;;;;;20.75;13.65;;;;;;;;;;5060459;28;20207;-83
2022/01/13 09:55:20;;;;;;;21.30;15.05;;;0.60;98.50;;;;;;5058243;28;20208;-83
2022/01/13 09:57:49;;;;;;;19.48;14.15;;;0.60;98.90;;;;;;5060795;28;20236;-84
2022/01/13 10:00:19;;;;;;;21.30;13.75;;;0.70;97.90;;;;;;5054818;28;20235;-83
2022/01/13 10:02:46;;;;;;;17.38;14.23;;;0.80;99.90;;;;;;5061331;28;20207;-83
2022/01/13 10:05:16;;;;;;;21.80;14.15;;;0.90;99.90;;;;;;5054315;28;20207;-83
2022/01/13 10:07:46;;;;;;;18.25;12.68;;;0.90;97.80;;;;;;5060814;28;20208;-84
2022/01/13 10:10:15;;;;;;;18.30;12.13;;;1.00;99.90;;;;;;5059764;28;20211;-84
2022/01/13 10:12:46;;;;;;;17.20;12.43;;;0.90;97.80;;;;;;5058958;28;20207;-84
2022/01/13 10:18:00;;;;;;;19.08;14.10;;;;;;;;;;5058628;28;20235;-84
2022/01/13 10:20:27;;;;;;;15.88;11.50;;;;;;;;;;5057895;28;20200;-84
2022/01/13 10:22:55;;;;;;;17.58;12.88;;;;;;;;;;5060663;28;20227;-84
2022/01/13 10:25:29;;;;;;;18.73;12.13;;;0.80;98.00;;;;;;5058223;28;20210;-83
2022/01/13 10:27:58;;;;;;;15.60;11.25;;;;;;;;;;5058871;28;20246;-82
2022/01/13 10:30:26;;;;;;;20.50;12.50;;;;;;;;;;5056644;28;20261;-83
2022/01/13 10:32:55;;;;;;;20.05;13.63;;;0.90;99.90;;;;;;5061440;28;20229;-83
2022/01/13 10:35:23;;;;;;;17.20;11.80;;;1.00;98.50;;;;;;5043314;28;20219;-83
2022/01/13 10:37:54;;;;;;;19.13;14.98;;;0.60;98.20;;;;;;5061045;28;20313;-83
2022/01/13 10:40:25;;;;;;;18.17;13.40;;;;;;;;;;5057534;28;20680;-83
2022/01/13 10:43:10;;;;;;;19.33;12.95;;;1.00;99.60;;;;;;5054693;28;20218;-83
2022/01/13 10:45:49;;;;;;;19.00;12.40;;;1.20;99.80;;;;;;5059766;28;20283;-83
2022/01/13 10:48:18;;;;;;;20.52;13.60;;;;;;;;;;5055337;28;20192;-84
2022/01/13 10:50:47;;;;;;;21.40;13.98;;;;;;;;;;5056787;28;20267;-84
2022/01/13 10:53:18;;;;;;;22.85;15.60;;;1.10;99.60;;;;;;5055463;28;20274;-83
2022/01/13 10:55:51;;;;;;;21.23;16.65;;;1.20;99.60;;;;;;5054236;28;20199;-83
2022/01/13 10:58:20;;;;;;;24.67;14.50;;;1.10;98.00;;;;;;5056229;28;20701;-83
2022/01/13 11:00:51;;;;;;;25.10;14.90;;;;;;;;;;5055520;28;20215;-83
2022/01/13 11:03:21;;;;;;;20.55;13.93;;;1.20;99.50;;;;;;5047036;28;20208;-83
2022/01/13 11:05:50;;;;;;;22.55;17.50;;;1.40;98.00;;;;;;5054617;28;21069;-83
2022/01/13 11:08:27;;;;;;;23.40;15.35;;;1.20;97.80;;;;;;5056350;28;20540;-82
2022/01/13 11:10:57;;;;;;;20.25;13.85;;;1.40;97.90;;;;;;5054396;28;20211;-83
2022/01/13 11:13:27;;;;;;;22.73;15.00;;;1.30;97.90;;;;;;5050085;28;20200;-82
2022/01/13 11:15:56;;;;;;;22.95;17.08;;;1.40;99.90;;;;;;5059887;28;20234;-82
2022/01/13 11:18:25;;;;;;;22.98;15.23;;;;;;;;;;5053808;28;20233;-81
2022/01/13 11:20:52;;;;;;;26.02;17.00;;;1.40;97.50;;;;;;5053207;28;20200;-82
2022/01/13 11:23:20;;;;;;;18.35;14.43;;;2.10;99.90;;;;;;5059836;28;20220;-81
2022/01/13 11:25:49;;;;;;;21.75;15.68;;;1.60;97.60;;;;;;5056297;28;20212;-83
2022/01/13 11:28:17;;;;;;;26.55;16.17;;;1.60;96.90;;;;;;5050888;28;20257;-83
2022/01/13 11:30:45;;;;;;;20.50;14.98;;;;;;;;;;5054541;28;20208;-83
2022/01/13 11:33:14;;;;;;;26.73;15.88;;;;;;;;;;5054155;28;20659;-82
2022/01/13 11:35:48;;;;;;;19.92;14.15;;;1.70;96.30;;;;;;5052186;28;20648;-82
2022/01/13 11:38:18;;;;;;;31.00;16.20;;;1.70;97.30;;;;;;5057221;28;20246;-82
2022/01/13 11:40:46;;;;;;;18.60;14.00;;;1.70;97.50;;;;;;5050085;28;20306;-82
2022/01/13 11:43:36;;;;;;;17.35;13.13;;;1.60;96.60;;;;;;5053504;28;20196;-82
2022/01/13 11:46:19;;;;;;;20.20;15.15;;;1.90;99.90;;;;;;5054603;28;20204;-82
2022/01/13 11:49:05;;;;;;;21.33;14.32;;;1.70;96.60;;;;;;5052211;28;20199;-83
2022/01/13 11:51:44;;;;;;;20.20;13.77;;;1.70;96.80;;;;;;5053535;28;20234;-83
2022/01/13 11:54:25;;;;;;;16.63;14.30;;;1.80;97.40;;;;;;5052147;28;20538;-82
2022/01/13 11:57:14;;;;;;;22.45;13.23;;;1.80;97.80;;;;;;5054668;28;20230;-83
2022/01/13 11:59:48;;;;;;;21.52;12.88;;;;;;;;;;5049439;28;20200;-83
2022/01/13 12:02:24;;;;;;;19.73;14.15;;;1.80;97.00;;;;;;5057691;28;20750;-82
2022/01/13 12:05:02;;;;;;;18.40;13.85;;;;;;;;;;5052875;28;20570;-82
2022/01/13 12:07:36;;;;;;;15.88;11.65;;;2.00;96.60;;;;;;5057496;28;20200;-83
2022/01/13 12:10:04;;;;;;;19.52;14.02;;;2.00;97.20;;;;;;5055477;28;20290;-83
2022/01/13 12:12:33;;;;;;;18.25;14.10;;;1.90;97.40;;;;;;5054904;28;20209;-82
2022/01/13 12:15:17;;;;;;;15.60;12.93;;;3.70;97.40;;;;;;5056991;28;20295;-82
2022/01/13 12:17:46;;;;;;;19.30;12.75;;;2.10;97.10;;;;;;5056048;28;20232;-83
2022/01/13 12:20:27;;;;;;;19.23;13.52;;;1.90;97.00;;;;;;5047730;28;20200;-82
2022/01/13 12:23:04;;;;;;;16.67;12.80;;;;;;;;;;5057944;28;20206;-83
2022/01/13 12:25:32;;;;;;;17.48;12.65;;;2.20;96.60;;;;;;5054324;28;20199;-82
2022/01/13 12:28:11;;;;;;;18.02;13.23;;;2.20;97.10;;;;;;5056172;28;20211;-83
2022/01/13 12:30:38;;;;;;;15.80;13.30;;;;;;;;;;5056902;28;20268;-82
2022/01/13 12:33:07;;;;;;;16.52;11.40;;;2.20;97.00;;;;;;5051306;28;20195;-83
2022/01/13 12:35:43;;;;;;;18.73;12.75;;;;;;;;;;5058663;28;20225;-83
2022/01/13 12:38:13;;;;;;;16.98;13.20;;;2.20;97.00;;;;;;5047506;28;20635;-83
2022/01/13 12:40:44;;;;;;;16.95;10.65;;;2.30;99.90;;;;;;5052110;28;20196;-83
2022/01/13 12:43:22;;;;;;;13.80;10.75;;;;;;;;;;5054396;28;20270;-82
2022/01/13 12:45:50;;;;;;;15.38;11.02;;;2.20;96.80;;;;;;5052767;28;20207;-83
2022/01/13 12:48:17;;;;;;;17.77;12.88;;;;;;;;;;5055500;28;20212;-83
2022/01/13 12:50:47;;;;;;;15.50;11.60;;;2.60;97.10;;;;;;5046053;28;20208;-83
2022/01/13 12:53:17;;;;;;;14.85;11.70;;;2.50;96.60;;;;;;5057122;28;20602;-82
2022/01/13 12:55:53;;;;;;;22.42;13.63;;;2.30;96.50;;;;;;5049264;28;20203;-83
2022/01/13 12:58:21;;;;;;;18.08;12.10;;;2.90;95.70;;;;;;5052596;28;20219;-83
2022/01/13 13:00:48;;;;;;;15.13;10.52;;;;;;;;;;5057272;28;20203;-83
2022/01/13 13:03:18;;;;;;;16.92;10.82;;;;;;;;;;5051088;28;20199;-82
2022/01/13 13:05:48;;;;;;;26.60;12.38;;;2.70;96.40;;;;;;5058562;28;20203;-82
2022/01/13 13:08:18;;;;;;;15.45;10.68;;;2.60;96.60;;;;;;5058310;28;20658;-82
2022/01/13 13:10:47;;;;;;;19.67;13.27;;;;;;;;;;5054804;28;20204;-83
2022/01/13 13:13:16;;;;;;;13.27;11.48;;;2.60;96.30;;;;;;5046528;28;20302;-83
2022/01/13 13:15:52;;;;;;;18.63;10.20;;;2.60;96.30;;;;;;5056262;28;20220;-82
2022/01/13 13:18:21;;;;;;;17.27;12.40;;;2.60;96.30;;;;;;5049730;28;20239;-82
2022/01/13 13:20:50;;;;;;;20.20;14.63;;;2.40;99.90;;;;;;5052023;28;20589;-82
2022/01/13 13:23:22;;;;;;;23.52;13.38;;;2.60;99.90;;;;;;5054013;28;20283;-82
2022/01/13 13:25:52;;;;;;;17.73;11.90;;;2.50;96.40;;;;;;5058200;28;20218;-83
2022/01/13 13:28:31;;;;;;;26.63;12.60;;;2.60;96.20;;;;;;5048787;28;20204;-82
2022/01/13 13:31:03;;;;;;;19.85;12.05;;;5.10;97.60;;;;;;5046460;28;20234;-82
2022/01/13 13:33:39;;;;;;;20.42;14.32;;;2.70;96.90;;;;;;5045448;28;20193;-82
2022/01/13 13:36:09;;;;;;;30.17;14.40;;;;;;;;;;5059611;28;20199;-82
2022/01/13 13:38:57;;;;;;;19.95;13.63;;;2.00;99.90;;;;;;5054456;28;20282;-82
2022/01/13 13:41:26;;;;;;;16.25;11.35;;;2.70;96.60;;;;;;5045817;28;20199;-82
2022/01/13 13:43:55;;;;;;;16.48;12.15;;;2.70;96.90;;;;;;5055332;28;20199;-82
2022/01/13 13:46:24;;;;;;;16.75;12.27;;;2.60;96.80;;;;;;5053340;28;20219;-82
2022/01/13 13:48:51;;;;;;;16.05;12.32;;;;;;;;;;5051455;28;20205;-82
2022/01/13 13:51:21;;;;;;;15.30;11.30;;;2.90;98.80;;;;;;5052233;28;20203;-83
2022/01/13 13:54:08;;;;;;;15.70;11.05;;;2.80;95.60;;;;;;5048647;28;20273;-83
2022/01/13 13:56:38;;;;;;;16.33;11.35;;;;;;;;;;5055468;28;20258;-82
2022/01/13 13:59:06;;;;;;;18.45;12.38;;;2.90;96.20;;;;;;5053108;28;20232;-82
2022/01/13 14:01:37;;;;;;;15.73;10.38;;;;;;;;;;5059125;28;20201;-82
2022/01/13 14:04:05;;;;;;;15.05;11.20;;;;;;;;;;5057684;28;20248;-82